sensor_id;sensor_type;location;lat;lon;timestamp;P1;durP1;ratioP1;P2;durP2;ratioP2
24335;SDS011;75016;52.400;16.880;2024-03-23T00:54:32;22.60;;;15.80;;
24335;SDS011;75016;52.400;16.880;2024-03-23T00:56:58;25.60;;;16.00;;
24335;SDS011;75016;52.400;16.880;2024-03-23T00:59:23;25.30;;;17.00;;
24335;SDS011;75016;52.400;16.880;2024-03-23T01:01:52;22.90;;;16.20;;
24335;SDS011;75016;52.400;16.880;2024-03-23T01:04:18;24.90;;;17.50;;
24335;SDS011;75016;52.400;16.880;2024-03-23T01:06:43;24.80;;;16.30;;
24335;SDS011;75016;52.400;16.880;2024-03-23T01:09:09;25.20;;;17.20;;
24335;SDS011;75016;52.400;16.880;2024-03-23T01:11:36;26.50;;;17.10;;
24335;SDS011;75016;52.400;16.880;2024-03-23T01:14:02;24.90;;;17.10;;
24335;SDS011;75016;52.400;16.880;2024-03-23T01:16:28;26.30;;;18.20;;
24335;SDS011;75016;52.400;16.880;2024-03-23T01:18:53;26.40;;;18.00;;
24335;SDS011;75016;52.400;16.880;2024-03-23T01:21:18;24.90;;;16.50;;
24335;SDS011;75016;52.400;16.880;2024-03-23T01:23:44;27.30;;;18.00;;
24335;SDS011;75016;52.400;16.880;2024-03-23T01:26:10;25.00;;;17.60;;
24335;SDS011;75016;52.400;16.880;2024-03-23T01:28:35;25.10;;;17.30;;
24335;SDS011;75016;52.400;16.880;2024-03-23T01:31:00;24.50;;;17.00;;
24335;SDS011;75016;52.400;16.880;2024-03-23T01:33:26;25.40;;;17.90;;
24335;SDS011;75016;52.400;16.880;2024-03-23T01:35:51;24.40;;;16.40;;
24335;SDS011;75016;52.400;16.880;2024-03-23T01:38:17;21.70;;;16.20;;
24335;SDS011;75016;52.400;16.880;2024-03-23T01:40:42;24.60;;;17.00;;
24335;SDS011;75016;52.400;16.880;2024-03-23T01:43:07;24.90;;;17.40;;
24335;SDS011;75016;52.400;16.880;2024-03-23T01:45:33;24.30;;;16.80;;
24335;SDS011;75016;52.400;16.880;2024-03-23T01:48:00;24.80;;;17.80;;
24335;SDS011;75016;52.400;16.880;2024-03-23T01:50:26;24.30;;;17.50;;
24335;SDS011;75016;52.400;16.880;2024-03-23T01:52:52;24.30;;;17.50;;
24335;SDS011;75016;52.400;16.880;2024-03-23T01:55:19;24.80;;;17.30;;
24335;SDS011;75016;52.400;16.880;2024-03-23T01:57:45;28.60;;;19.30;;
24335;SDS011;75016;52.400;16.880;2024-03-23T02:00:10;25.70;;;17.70;;
24335;SDS011;75016;52.400;16.880;2024-03-23T02:02:43;26.30;;;17.60;;
24335;SDS011;75016;52.400;16.880;2024-03-23T02:05:11;26.20;;;18.00;;
24335;SDS011;75016;52.400;16.880;2024-03-23T02:07:37;25.70;;;18.60;;
24335;SDS011;75016;52.400;16.880;2024-03-23T02:10:04;30.00;;;18.60;;
24335;SDS011;75016;52.400;16.880;2024-03-23T02:12:31;30.60;;;19.60;;
24335;SDS011;75016;52.400;16.880;2024-03-23T02:14:57;28.80;;;19.60;;
24335;SDS011;75016;52.400;16.880;2024-03-23T02:17:22;30.10;;;20.20;;
24335;SDS011;75016;52.400;16.880;2024-03-23T02:19:48;27.50;;;19.40;;
24335;SDS011;75016;52.400;16.880;2024-03-23T02:22:13;30.30;;;20.20;;
24335;SDS011;75016;52.400;16.880;2024-03-23T02:24:41;28.80;;;20.10;;
24335;SDS011;75016;52.400;16.880;2024-03-23T02:27:06;27.60;;;20.40;;
24335;SDS011;75016;52.400;16.880;2024-03-23T02:29:31;27.70;;;19.20;;
24335;SDS011;75016;52.400;16.880;2024-03-23T02:31:57;29.80;;;20.80;;
24335;SDS011;75016;52.400;16.880;2024-03-23T02:34:24;28.90;;;19.60;;
24335;SDS011;75016;52.400;16.880;2024-03-23T02:36:49;31.80;;;19.80;;
24335;SDS011;75016;52.400;16.880;2024-03-23T02:39:15;28.30;;;19.30;;
24335;SDS011;75016;52.400;16.880;2024-03-23T02:41:40;28.30;;;19.90;;
24335;SDS011;75016;52.400;16.880;2024-03-23T02:44:06;28.30;;;19.70;;
24335;SDS011;75016;52.400;16.880;2024-03-23T02:46:32;27.60;;;19.70;;
24335;SDS011;75016;52.400;16.880;2024-03-23T02:48:57;30.10;;;20.30;;
24335;SDS011;75016;52.400;16.880;2024-03-23T02:51:22;29.60;;;20.00;;
24335;SDS011;75016;52.400;16.880;2024-03-23T02:53:48;27.10;;;19.50;;
24335;SDS011;75016;52.400;16.880;2024-03-23T02:56:13;26.80;;;18.80;;
24335;SDS011;75016;52.400;16.880;2024-03-23T02:58:41;28.80;;;20.10;;
24335;SDS011;75016;52.400;16.880;2024-03-23T03:01:08;29.00;;;19.90;;
24335;SDS011;75016;52.400;16.880;2024-03-23T03:03:33;28.30;;;19.70;;
24335;SDS011;75016;52.400;16.880;2024-03-23T03:05:58;28.30;;;19.80;;
24335;SDS011;75016;52.400;16.880;2024-03-23T03:08:24;30.10;;;20.30;;
24335;SDS011;75016;52.400;16.880;2024-03-23T03:10:49;28.10;;;19.20;;
24335;SDS011;75016;52.400;16.880;2024-03-23T03:13:15;27.70;;;19.90;;
24335;SDS011;75016;52.400;16.880;2024-03-23T03:15:41;27.80;;;20.00;;
24335;SDS011;75016;52.400;16.880;2024-03-23T03:18:08;27.50;;;19.60;;
24335;SDS011;75016;52.400;16.880;2024-03-23T03:20:37;27.30;;;19.00;;
24335;SDS011;75016;52.400;16.880;2024-03-23T03:23:04;28.20;;;19.50;;
24335;SDS011;75016;52.400;16.880;2024-03-23T03:25:30;27.20;;;19.00;;
24335;SDS011;75016;52.400;16.880;2024-03-23T03:27:55;29.60;;;20.50;;
24335;SDS011;75016;52.400;16.880;2024-03-23T03:30:21;27.70;;;19.90;;
24335;SDS011;75016;52.400;16.880;2024-03-23T03:32:46;28.10;;;19.80;;
24335;SDS011;75016;52.400;16.880;2024-03-23T03:35:12;27.90;;;20.10;;
24335;SDS011;75016;52.400;16.880;2024-03-23T03:37:37;27.60;;;19.20;;
24335;SDS011;75016;52.400;16.880;2024-03-23T03:40:03;26.70;;;18.60;;
24335;SDS011;75016;52.400;16.880;2024-03-23T03:42:28;27.40;;;19.30;;
24335;SDS011;75016;52.400;16.880;2024-03-23T03:44:54;28.80;;;19.30;;
24335;SDS011;75016;52.400;16.880;2024-03-23T03:47:19;25.20;;;18.10;;
24335;SDS011;75016;52.400;16.880;2024-03-23T03:49:45;26.30;;;19.30;;
24335;SDS011;75016;52.400;16.880;2024-03-23T03:52:10;25.90;;;18.60;;
24335;SDS011;75016;52.400;16.880;2024-03-23T03:54:36;25.30;;;17.70;;
24335;SDS011;75016;52.400;16.880;2024-03-23T03:57:01;27.10;;;18.50;;
24335;SDS011;75016;52.400;16.880;2024-03-23T03:59:27;24.90;;;18.30;;
24335;SDS011;75016;52.400;16.880;2024-03-23T04:01:52;27.40;;;18.90;;
24335;SDS011;75016;52.400;16.880;2024-03-23T04:04:17;25.50;;;18.80;;
24335;SDS011;75016;52.400;16.880;2024-03-23T04:06:43;25.70;;;17.70;;
24335;SDS011;75016;52.400;16.880;2024-03-23T04:09:09;24.80;;;18.20;;
24335;SDS011;75016;52.400;16.880;2024-03-23T04:11:35;23.40;;;18.40;;
24335;SDS011;75016;52.400;16.880;2024-03-23T04:14:00;26.80;;;19.00;;
24335;SDS011;75016;52.400;16.880;2024-03-23T04:16:30;25.50;;;18.40;;
24335;SDS011;75016;52.400;16.880;2024-03-23T04:18:59;25.90;;;18.40;;
24335;SDS011;75016;52.400;16.880;2024-03-23T04:21:25;25.50;;;18.30;;
24335;SDS011;75016;52.400;16.880;2024-03-23T04:23:50;22.80;;;17.50;;
24335;SDS011;75016;52.400;16.880;2024-03-23T04:26:15;25.40;;;18.60;;
24335;SDS011;75016;52.400;16.880;2024-03-23T04:28:41;10.90;;;7.60;;
24335;SDS011;75016;52.400;16.880;2024-03-23T04:31:08;6.30;;;4.00;;
24335;SDS011;75016;52.400;16.880;2024-03-23T04:33:33;5.70;;;3.00;;
24335;SDS011;75016;52.400;16.880;2024-03-23T04:35:59;7.10;;;2.80;;
24335;SDS011;75016;52.400;16.880;2024-03-23T04:38:24;6.20;;;2.50;;
24335;SDS011;75016;52.400;16.880;2024-03-23T04:40:56;5.20;;;2.30;;
24335;SDS011;75016;52.400;16.880;2024-03-23T04:43:22;7.00;;;2.80;;
24335;SDS011;75016;52.400;16.880;2024-03-23T04:45:48;5.90;;;2.50;;
24335;SDS011;75016;52.400;16.880;2024-03-23T04:48:13;5.40;;;2.20;;
24335;SDS011;75016;52.400;16.880;2024-03-23T04:50:39;5.60;;;2.30;;
24335;SDS011;75016;52.400;16.880;2024-03-23T04:53:05;5.20;;;2.30;;
24335;SDS011;75016;52.400;16.880;2024-03-23T04:55:31;6.40;;;2.20;;
24335;SDS011;75016;52.400;16.880;2024-03-23T04:57:56;8.70;;;2.90;;
24335;SDS011;75016;52.400;16.880;2024-03-23T05:00:22;6.60;;;2.60;;
24335;SDS011;75016;52.400;16.880;2024-03-23T05:02:48;6.80;;;2.60;;
24335;SDS011;75016;52.400;16.880;2024-03-23T05:05:14;8.10;;;2.80;;
24335;SDS011;75016;52.400;16.880;2024-03-23T05:07:39;8.20;;;3.10;;
24335;SDS011;75016;52.400;16.880;2024-03-23T05:10:05;7.90;;;3.00;;
24335;SDS011;75016;52.400;16.880;2024-03-23T05:12:30;7.10;;;2.90;;
24335;SDS011;75016;52.400;16.880;2024-03-23T05:14:56;5.10;;;2.60;;
24335;SDS011;75016;52.400;16.880;2024-03-23T05:17:22;9.80;;;2.90;;
24335;SDS011;75016;52.400;16.880;2024-03-23T05:19:48;9.50;;;2.90;;
24335;SDS011;75016;52.400;16.880;2024-03-23T05:22:13;10.50;;;3.10;;
24335;SDS011;75016;52.400;16.880;2024-03-23T05:24:38;9.50;;;3.00;;
24335;SDS011;75016;52.400;16.880;2024-03-23T05:27:04;7.80;;;2.70;;
24335;SDS011;75016;52.400;16.880;2024-03-23T05:32:05;8.30;;;3.30;;
24335;SDS011;75016;52.400;16.880;2024-03-23T05:34:31;8.70;;;2.60;;
24335;SDS011;75016;52.400;16.880;2024-03-23T05:36:56;10.60;;;3.50;;
24335;SDS011;75016;52.400;16.880;2024-03-23T05:39:22;9.30;;;3.00;;
24335;SDS011;75016;52.400;16.880;2024-03-23T05:41:48;12.10;;;2.90;;
24335;SDS011;75016;52.400;16.880;2024-03-23T05:44:13;9.40;;;3.10;;
24335;SDS011;75016;52.400;16.880;2024-03-23T05:46:40;11.50;;;3.30;;
24335;SDS011;75016;52.400;16.880;2024-03-23T05:49:06;11.70;;;3.00;;
24335;SDS011;75016;52.400;16.880;2024-03-23T05:51:31;11.50;;;3.10;;
24335;SDS011;75016;52.400;16.880;2024-03-23T05:53:57;11.50;;;2.90;;
24335;SDS011;75016;52.400;16.880;2024-03-23T05:56:22;7.60;;;2.80;;
24335;SDS011;75016;52.400;16.880;2024-03-23T05:58:47;11.80;;;3.20;;
24335;SDS011;75016;52.400;16.880;2024-03-23T06:01:13;13.60;;;3.50;;
24335;SDS011;75016;52.400;16.880;2024-03-23T06:03:39;10.90;;;3.60;;
24335;SDS011;75016;52.400;16.880;2024-03-23T06:06:04;12.40;;;3.40;;
24335;SDS011;75016;52.400;16.880;2024-03-23T06:08:35;13.20;;;3.70;;
24335;SDS011;75016;52.400;16.880;2024-03-23T06:11:01;12.90;;;3.40;;
24335;SDS011;75016;52.400;16.880;2024-03-23T06:13:26;14.40;;;3.80;;
24335;SDS011;75016;52.400;16.880;2024-03-23T06:15:55;11.10;;;3.40;;
24335;SDS011;75016;52.400;16.880;2024-03-23T06:18:21;9.80;;;3.40;;
24335;SDS011;75016;52.400;16.880;2024-03-23T06:20:46;12.90;;;3.80;;
24335;SDS011;75016;52.400;16.880;2024-03-23T06:23:12;12.50;;;3.80;;
24335;SDS011;75016;52.400;16.880;2024-03-23T06:25:38;14.00;;;4.00;;
24335;SDS011;75016;52.400;16.880;2024-03-23T06:28:03;11.30;;;3.70;;
24335;SDS011;75016;52.400;16.880;2024-03-23T06:30:29;12.90;;;3.60;;
24335;SDS011;75016;52.400;16.880;2024-03-23T06:32:57;12.10;;;4.00;;
24335;SDS011;75016;52.400;16.880;2024-03-23T06:35:22;13.80;;;3.80;;
24335;SDS011;75016;52.400;16.880;2024-03-23T06:37:48;12.90;;;3.50;;
24335;SDS011;75016;52.400;16.880;2024-03-23T06:40:13;11.80;;;3.40;;
24335;SDS011;75016;52.400;16.880;2024-03-23T06:42:38;13.20;;;3.60;;
24335;SDS011;75016;52.400;16.880;2024-03-23T06:45:04;16.70;;;4.10;;
24335;SDS011;75016;52.400;16.880;2024-03-23T06:47:30;11.50;;;3.50;;
24335;SDS011;75016;52.400;16.880;2024-03-23T06:49:56;14.20;;;3.90;;
24335;SDS011;75016;52.400;16.880;2024-03-23T06:52:21;12.10;;;4.30;;
24335;SDS011;75016;52.400;16.880;2024-03-23T06:54:47;13.30;;;4.60;;
24335;SDS011;75016;52.400;16.880;2024-03-23T06:57:12;11.60;;;4.30;;
24335;SDS011;75016;52.400;16.880;2024-03-23T06:59:38;14.50;;;4.80;;
24335;SDS011;75016;52.400;16.880;2024-03-23T07:02:06;15.70;;;4.60;;
24335;SDS011;75016;52.400;16.880;2024-03-23T07:04:34;12.20;;;3.90;;
24335;SDS011;75016;52.400;16.880;2024-03-23T07:07:00;14.30;;;4.00;;
24335;SDS011;75016;52.400;16.880;2024-03-23T07:09:27;11.50;;;3.60;;
24335;SDS011;75016;52.400;16.880;2024-03-23T07:11:55;9.90;;;3.40;;
24335;SDS011;75016;52.400;16.880;2024-03-23T07:14:22;13.40;;;3.60;;
24335;SDS011;75016;52.400;16.880;2024-03-23T07:16:48;11.20;;;3.90;;
24335;SDS011;75016;52.400;16.880;2024-03-23T07:19:15;15.00;;;3.70;;
24335;SDS011;75016;52.400;16.880;2024-03-23T07:21:43;9.90;;;3.20;;
24335;SDS011;75016;52.400;16.880;2024-03-23T07:24:10;15.50;;;4.50;;
24335;SDS011;75016;52.400;16.880;2024-03-23T07:26:36;11.60;;;3.60;;
24335;SDS011;75016;52.400;16.880;2024-03-23T07:29:03;13.00;;;3.40;;
24335;SDS011;75016;52.400;16.880;2024-03-23T07:31:28;14.10;;;3.80;;
24335;SDS011;75016;52.400;16.880;2024-03-23T07:33:54;13.20;;;3.60;;
24335;SDS011;75016;52.400;16.880;2024-03-23T07:36:19;12.00;;;3.30;;
24335;SDS011;75016;52.400;16.880;2024-03-23T07:38:45;15.80;;;3.90;;
24335;SDS011;75016;52.400;16.880;2024-03-23T07:41:11;14.20;;;3.80;;
24335;SDS011;75016;52.400;16.880;2024-03-23T07:43:40;12.90;;;3.40;;
24335;SDS011;75016;52.400;16.880;2024-03-23T07:46:06;13.70;;;3.80;;
24335;SDS011;75016;52.400;16.880;2024-03-23T07:48:32;12.80;;;3.70;;
24335;SDS011;75016;52.400;16.880;2024-03-23T07:51:05;14.80;;;4.00;;
24335;SDS011;75016;52.400;16.880;2024-03-23T07:53:32;14.50;;;3.80;;
24335;SDS011;75016;52.400;16.880;2024-03-23T07:55:58;15.90;;;4.10;;
24335;SDS011;75016;52.400;16.880;2024-03-23T07:58:28;15.30;;;3.90;;
24335;SDS011;75016;52.400;16.880;2024-03-23T08:00:54;12.00;;;3.90;;
24335;SDS011;75016;52.400;16.880;2024-03-23T08:03:20;15.30;;;4.30;;
24335;SDS011;75016;52.400;16.880;2024-03-23T08:05:45;13.70;;;3.80;;
24335;SDS011;75016;52.400;16.880;2024-03-23T08:08:11;14.10;;;3.70;;
24335;SDS011;75016;52.400;16.880;2024-03-23T08:10:37;13.30;;;3.60;;
24335;SDS011;75016;52.400;16.880;2024-03-23T08:13:12;8.90;;;3.10;;
24335;SDS011;75016;52.400;16.880;2024-03-23T08:15:38;14.50;;;3.50;;
24335;SDS011;75016;52.400;16.880;2024-03-23T08:18:03;11.30;;;3.10;;
24335;SDS011;75016;52.400;16.880;2024-03-23T08:20:29;13.70;;;3.90;;
24335;SDS011;75016;52.400;16.880;2024-03-23T08:22:55;14.30;;;3.50;;
24335;SDS011;75016;52.400;16.880;2024-03-23T08:25:20;14.30;;;3.80;;
24335;SDS011;75016;52.400;16.880;2024-03-23T08:27:45;11.70;;;3.70;;
24335;SDS011;75016;52.400;16.880;2024-03-23T08:30:11;13.00;;;3.90;;
24335;SDS011;75016;52.400;16.880;2024-03-23T08:32:37;11.30;;;3.70;;
24335;SDS011;75016;52.400;16.880;2024-03-23T08:35:02;12.50;;;4.20;;
24335;SDS011;75016;52.400;16.880;2024-03-23T08:37:29;12.20;;;4.00;;
24335;SDS011;75016;52.400;16.880;2024-03-23T08:39:54;14.60;;;4.00;;
24335;SDS011;75016;52.400;16.880;2024-03-23T08:42:19;13.80;;;4.30;;
24335;SDS011;75016;52.400;16.880;2024-03-23T08:44:46;13.30;;;3.60;;
24335;SDS011;75016;52.400;16.880;2024-03-23T08:47:15;11.50;;;3.50;;
24335;SDS011;75016;52.400;16.880;2024-03-23T08:49:41;12.30;;;4.40;;
24335;SDS011;75016;52.400;16.880;2024-03-23T08:52:07;12.20;;;4.40;;
24335;SDS011;75016;52.400;16.880;2024-03-23T08:54:32;14.30;;;4.50;;
24335;SDS011;75016;52.400;16.880;2024-03-23T08:56:58;11.70;;;4.00;;
24335;SDS011;75016;52.400;16.880;2024-03-23T08:59:24;15.30;;;4.60;;
24335;SDS011;75016;52.400;16.880;2024-03-23T09:01:50;12.10;;;4.80;;
24335;SDS011;75016;52.400;16.880;2024-03-23T09:04:15;13.80;;;4.70;;
24335;SDS011;75016;52.400;16.880;2024-03-23T09:06:43;16.70;;;4.90;;
24335;SDS011;75016;52.400;16.880;2024-03-23T09:09:09;15.30;;;4.90;;
24335;SDS011;75016;52.400;16.880;2024-03-23T09:11:34;15.30;;;4.80;;
24335;SDS011;75016;52.400;16.880;2024-03-23T09:14:00;10.00;;;4.10;;
24335;SDS011;75016;52.400;16.880;2024-03-23T09:16:26;13.60;;;4.80;;
24335;SDS011;75016;52.400;16.880;2024-03-23T09:18:51;13.60;;;4.90;;
24335;SDS011;75016;52.400;16.880;2024-03-23T09:21:17;11.10;;;4.30;;
24335;SDS011;75016;52.400;16.880;2024-03-23T09:23:45;13.80;;;5.10;;
24335;SDS011;75016;52.400;16.880;2024-03-23T09:26:11;13.60;;;4.70;;
24335;SDS011;75016;52.400;16.880;2024-03-23T09:28:37;12.90;;;4.90;;
24335;SDS011;75016;52.400;16.880;2024-03-23T09:31:06;13.50;;;4.50;;
24335;SDS011;75016;52.400;16.880;2024-03-23T09:33:33;9.10;;;4.10;;
24335;SDS011;75016;52.400;16.880;2024-03-23T09:36:02;9.40;;;3.60;;
24335;SDS011;75016;52.400;16.880;2024-03-23T09:38:29;9.20;;;3.60;;
24335;SDS011;75016;52.400;16.880;2024-03-23T09:40:54;10.30;;;3.80;;
24335;SDS011;75016;52.400;16.880;2024-03-23T09:43:21;11.60;;;4.80;;
24335;SDS011;75016;52.400;16.880;2024-03-23T09:45:47;10.20;;;4.30;;
24335;SDS011;75016;52.400;16.880;2024-03-23T09:48:14;12.50;;;4.50;;
24335;SDS011;75016;52.400;16.880;2024-03-23T09:50:41;13.20;;;4.80;;
24335;SDS011;75016;52.400;16.880;2024-03-23T09:53:08;12.30;;;4.50;;
24335;SDS011;75016;52.400;16.880;2024-03-23T09:55:35;11.20;;;4.30;;
24335;SDS011;75016;52.400;16.880;2024-03-23T09:58:02;13.60;;;5.40;;
24335;SDS011;75016;52.400;16.880;2024-03-23T10:00:27;13.00;;;5.40;;
24335;SDS011;75016;52.400;16.880;2024-03-23T10:02:55;14.30;;;5.70;;
24335;SDS011;75016;52.400;16.880;2024-03-23T10:05:23;16.50;;;5.00;;
24335;SDS011;75016;52.400;16.880;2024-03-23T10:07:49;18.90;;;4.90;;
24335;SDS011;75016;52.400;16.880;2024-03-23T10:10:16;11.60;;;4.50;;
24335;SDS011;75016;52.400;16.880;2024-03-23T10:12:48;11.70;;;4.40;;
24335;SDS011;75016;52.400;16.880;2024-03-23T10:17:48;9.30;;;4.10;;
24335;SDS011;75016;52.400;16.880;2024-03-23T10:20:18;13.70;;;4.80;;
24335;SDS011;75016;52.400;16.880;2024-03-23T10:22:47;10.40;;;4.50;;
24335;SDS011;75016;52.400;16.880;2024-03-23T10:25:13;11.90;;;4.10;;
24335;SDS011;75016;52.400;16.880;2024-03-23T10:27:39;13.50;;;4.20;;
24335;SDS011;75016;52.400;16.880;2024-03-23T10:30:12;9.90;;;4.40;;
24335;SDS011;75016;52.400;16.880;2024-03-23T10:32:39;15.20;;;4.50;;
24335;SDS011;75016;52.400;16.880;2024-03-23T10:35:15;12.50;;;4.10;;
24335;SDS011;75016;52.400;16.880;2024-03-23T10:37:41;10.40;;;3.80;;
24335;SDS011;75016;52.400;16.880;2024-03-23T10:40:08;10.80;;;3.60;;
24335;SDS011;75016;52.400;16.880;2024-03-23T10:42:35;9.60;;;4.10;;
24335;SDS011;75016;52.400;16.880;2024-03-23T10:45:03;11.90;;;4.90;;
24335;SDS011;75016;52.400;16.880;2024-03-23T10:47:29;11.20;;;4.40;;
24335;SDS011;75016;52.400;16.880;2024-03-23T10:49:55;10.20;;;3.90;;
24335;SDS011;75016;52.400;16.880;2024-03-23T10:52:20;10.10;;;3.50;;
24335;SDS011;75016;52.400;16.880;2024-03-23T10:54:45;10.10;;;3.50;;
24335;SDS011;75016;52.400;16.880;2024-03-23T10:57:14;11.10;;;3.30;;
24335;SDS011;75016;52.400;16.880;2024-03-23T10:59:46;7.60;;;3.60;;
24335;SDS011;75016;52.400;16.880;2024-03-23T11:02:19;10.10;;;3.80;;
24335;SDS011;75016;52.400;16.880;2024-03-23T11:04:45;11.80;;;4.50;;
24335;SDS011;75016;52.400;16.880;2024-03-23T11:07:29;9.60;;;3.60;;
24335;SDS011;75016;52.400;16.880;2024-03-23T11:09:56;8.00;;;3.60;;
24335;SDS011;75016;52.400;16.880;2024-03-23T11:14:48;8.60;;;3.60;;
24335;SDS011;75016;52.400;16.880;2024-03-23T11:17:18;9.00;;;3.60;;
24335;SDS011;75016;52.400;16.880;2024-03-23T11:19:44;8.40;;;4.00;;
24335;SDS011;75016;52.400;16.880;2024-03-23T11:22:37;8.90;;;3.50;;
24335;SDS011;75016;52.400;16.880;2024-03-23T11:25:15;8.50;;;3.50;;
24335;SDS011;75016;52.400;16.880;2024-03-23T11:27:43;7.20;;;3.80;;
24335;SDS011;75016;52.400;16.880;2024-03-23T11:30:18;6.50;;;3.30;;
24335;SDS011;75016;52.400;16.880;2024-03-23T11:32:47;10.00;;;3.70;;
24335;SDS011;75016;52.400;16.880;2024-03-23T11:35:26;8.90;;;3.70;;
24335;SDS011;75016;52.400;16.880;2024-03-23T11:40:38;8.60;;;3.90;;
24335;SDS011;75016;52.400;16.880;2024-03-23T11:43:05;8.70;;;3.60;;
24335;SDS011;75016;52.400;16.880;2024-03-23T11:45:35;6.90;;;3.80;;
24335;SDS011;75016;52.400;16.880;2024-03-23T11:48:15;8.70;;;3.40;;
24335;SDS011;75016;52.400;16.880;2024-03-23T11:50:45;8.40;;;3.90;;
24335;SDS011;75016;52.400;16.880;2024-03-23T11:53:13;8.40;;;3.40;;
24335;SDS011;75016;52.400;16.880;2024-03-23T11:58:12;7.10;;;3.50;;
24335;SDS011;75016;52.400;16.880;2024-03-23T12:00:38;7.20;;;3.60;;
24335;SDS011;75016;52.400;16.880;2024-03-23T12:03:04;6.60;;;3.40;;
24335;SDS011;75016;52.400;16.880;2024-03-23T12:05:31;7.70;;;3.60;;
24335;SDS011;75016;52.400;16.880;2024-03-23T12:13:40;6.10;;;3.60;;
24335;SDS011;75016;52.400;16.880;2024-03-23T12:18:40;7.20;;;3.70;;
24335;SDS011;75016;52.400;16.880;2024-03-23T12:21:07;7.40;;;3.90;;
24335;SDS011;75016;52.400;16.880;2024-03-23T12:23:33;4.80;;;3.30;;
24335;SDS011;75016;52.400;16.880;2024-03-23T12:25:59;6.10;;;3.80;;
24335;SDS011;75016;52.400;16.880;2024-03-23T12:28:25;6.90;;;3.60;;
24335;SDS011;75016;52.400;16.880;2024-03-23T12:30:51;6.70;;;3.40;;
24335;SDS011;75016;52.400;16.880;2024-03-23T12:33:17;5.40;;;3.70;;
24335;SDS011;75016;52.400;16.880;2024-03-23T12:35:43;6.10;;;3.80;;
24335;SDS011;75016;52.400;16.880;2024-03-23T12:38:08;6.30;;;3.90;;
24335;SDS011;75016;52.400;16.880;2024-03-23T12:40:34;8.10;;;3.60;;
24335;SDS011;75016;52.400;16.880;2024-03-23T12:42:59;5.40;;;3.60;;
24335;SDS011;75016;52.400;16.880;2024-03-23T12:45:25;5.90;;;3.00;;
24335;SDS011;75016;52.400;16.880;2024-03-23T12:47:50;5.30;;;3.30;;
24335;SDS011;75016;52.400;16.880;2024-03-23T12:50:19;6.10;;;3.60;;
24335;SDS011;75016;52.400;16.880;2024-03-23T12:52:44;7.40;;;3.80;;
24335;SDS011;75016;52.400;16.880;2024-03-23T12:55:10;4.90;;;3.00;;
24335;SDS011;75016;52.400;16.880;2024-03-23T12:57:35;5.70;;;2.80;;
24335;SDS011;75016;52.400;16.880;2024-03-23T13:00:01;4.80;;;2.90;;
24335;SDS011;75016;52.400;16.880;2024-03-23T13:02:28;4.40;;;2.90;;
24335;SDS011;75016;52.400;16.880;2024-03-23T13:04:54;3.70;;;2.60;;
24335;SDS011;75016;52.400;16.880;2024-03-23T13:07:21;3.70;;;2.60;;
24335;SDS011;75016;52.400;16.880;2024-03-23T13:09:49;3.90;;;2.40;;
24335;SDS011;75016;52.400;16.880;2024-03-23T13:12:15;4.70;;;2.50;;
24335;SDS011;75016;52.400;16.880;2024-03-23T13:14:40;5.40;;;2.20;;
24335;SDS011;75016;52.400;16.880;2024-03-23T13:17:07;3.70;;;2.10;;
24335;SDS011;75016;52.400;16.880;2024-03-23T13:19:33;4.20;;;2.40;;
24335;SDS011;75016;52.400;16.880;2024-03-23T13:21:59;3.60;;;2.30;;
24335;SDS011;75016;52.400;16.880;2024-03-23T13:24:26;4.90;;;2.00;;
24335;SDS011;75016;52.400;16.880;2024-03-23T13:26:52;3.50;;;2.00;;
24335;SDS011;75016;52.400;16.880;2024-03-23T13:29:19;3.70;;;1.80;;
24335;SDS011;75016;52.400;16.880;2024-03-23T13:31:45;4.70;;;2.10;;
24335;SDS011;75016;52.400;16.880;2024-03-23T13:34:12;3.30;;;1.80;;
24335;SDS011;75016;52.400;16.880;2024-03-23T13:36:40;4.00;;;1.90;;
24335;SDS011;75016;52.400;16.880;2024-03-23T13:39:08;2.10;;;1.40;;
24335;SDS011;75016;52.400;16.880;2024-03-23T13:44:06;2.60;;;1.30;;
24335;SDS011;75016;52.400;16.880;2024-03-23T13:46:33;1.60;;;1.30;;
24335;SDS011;75016;52.400;16.880;2024-03-23T13:48:59;1.50;;;1.30;;
24335;SDS011;75016;52.400;16.880;2024-03-23T13:51:25;2.60;;;1.50;;
24335;SDS011;75016;52.400;16.880;2024-03-23T13:53:54;3.10;;;1.60;;
24335;SDS011;75016;52.400;16.880;2024-03-23T13:56:21;2.70;;;1.20;;
24335;SDS011;75016;52.400;16.880;2024-03-23T13:58:49;3.10;;;1.20;;
24335;SDS011;75016;52.400;16.880;2024-03-23T14:01:16;2.00;;;1.10;;
24335;SDS011;75016;52.400;16.880;2024-03-23T14:03:42;1.30;;;1.00;;
24335;SDS011;75016;52.400;16.880;2024-03-23T14:06:08;2.30;;;1.00;;
24335;SDS011;75016;52.400;16.880;2024-03-23T14:08:35;1.10;;;0.90;;
24335;SDS011;75016;52.400;16.880;2024-03-23T14:11:04;1.10;;;0.80;;
24335;SDS011;75016;52.400;16.880;2024-03-23T14:13:30;1.80;;;1.00;;
24335;SDS011;75016;52.400;16.880;2024-03-23T14:15:57;1.30;;;0.80;;
24335;SDS011;75016;52.400;16.880;2024-03-23T14:18:23;2.40;;;0.80;;
24335;SDS011;75016;52.400;16.880;2024-03-23T14:20:49;1.40;;;0.80;;
24335;SDS011;75016;52.400;16.880;2024-03-23T14:23:15;2.30;;;1.10;;
24335;SDS011;75016;52.400;16.880;2024-03-23T14:25:41;1.30;;;1.00;;
24335;SDS011;75016;52.400;16.880;2024-03-23T14:28:06;1.40;;;1.00;;
24335;SDS011;75016;52.400;16.880;2024-03-23T14:30:38;1.50;;;1.00;;
24335;SDS011;75016;52.400;16.880;2024-03-23T14:33:04;1.40;;;1.00;;
24335;SDS011;75016;52.400;16.880;2024-03-23T14:35:30;1.20;;;1.10;;
24335;SDS011;75016;52.400;16.880;2024-03-23T14:37:56;1.70;;;1.20;;
24335;SDS011;75016;52.400;16.880;2024-03-23T14:40:21;2.50;;;1.40;;
24335;SDS011;75016;52.400;16.880;2024-03-23T14:42:47;1.80;;;1.30;;
24335;SDS011;75016;52.400;16.880;2024-03-23T14:45:12;2.90;;;1.40;;
24335;SDS011;75016;52.400;16.880;2024-03-23T14:47:40;2.40;;;1.40;;
24335;SDS011;75016;52.400;16.880;2024-03-23T14:50:07;2.40;;;1.70;;
24335;SDS011;75016;52.400;16.880;2024-03-23T14:52:33;3.20;;;1.80;;
24335;SDS011;75016;52.400;16.880;2024-03-23T14:54:59;2.20;;;1.50;;
24335;SDS011;75016;52.400;16.880;2024-03-23T14:57:24;1.80;;;1.60;;
24335;SDS011;75016;52.400;16.880;2024-03-23T14:59:50;4.00;;;2.20;;
24335;SDS011;75016;52.400;16.880;2024-03-23T15:02:15;3.60;;;2.10;;
24335;SDS011;75016;52.400;16.880;2024-03-23T15:04:40;5.10;;;2.40;;
24335;SDS011;75016;52.400;16.880;2024-03-23T15:07:09;3.10;;;2.20;;
24335;SDS011;75016;52.400;16.880;2024-03-23T15:09:34;3.30;;;1.80;;
24335;SDS011;75016;52.400;16.880;2024-03-23T15:11:59;3.80;;;2.20;;
24335;SDS011;75016;52.400;16.880;2024-03-23T15:14:25;3.60;;;1.80;;
24335;SDS011;75016;52.400;16.880;2024-03-23T15:16:50;3.80;;;1.50;;
24335;SDS011;75016;52.400;16.880;2024-03-23T15:19:17;3.00;;;1.60;;
24335;SDS011;75016;52.400;16.880;2024-03-23T15:21:43;2.10;;;1.50;;
24335;SDS011;75016;52.400;16.880;2024-03-23T15:24:09;2.00;;;1.60;;
24335;SDS011;75016;52.400;16.880;2024-03-23T15:26:37;2.60;;;1.80;;
24335;SDS011;75016;52.400;16.880;2024-03-23T15:29:03;2.10;;;1.50;;
24335;SDS011;75016;52.400;16.880;2024-03-23T15:31:36;2.00;;;1.30;;
24335;SDS011;75016;52.400;16.880;2024-03-23T15:34:01;3.00;;;1.40;;
24335;SDS011;75016;52.400;16.880;2024-03-23T15:36:27;4.00;;;1.60;;